Time;durP1;ratioP1;P1;durP2;ratioP2;P2;SDS_P1;SDS_P2;PMS_P1;PMS_P2;Temp;Humidity;BMP_temperature;BMP_pressure;BME280_temperature;BME280_humidity;BME280_pressure;Samples;Min_cycle;Max_cycle;Signal;HPM_P1;HPM_P2
2023/01/05 04:50:32;;;;;;;15.97;9.97;;;;;;;6.73;100.00;100518.78;5291626;33;33394;-84
2023/01/05 04:53:36;;;;;;;17.05;9.77;;;;;;;6.86;100.00;100518.41;5289586;33;33902;-84
2023/01/05 04:56:39;;;;;;;19.80;10.10;;;;;;;6.78;100.00;100514.63;5291572;33;34936;-84
2023/01/05 04:59:42;;;;;;;15.77;10.23;;;;;;;6.72;100.00;100533.94;5289973;33;34057;-84
2023/01/05 05:02:46;;;;;;;16.48;9.77;;;;;;;6.67;100.00;100522.88;5275793;33;33124;-84
2023/01/05 05:05:49;;;;;;;16.83;9.52;;;;;;;6.64;100.00;100515.16;5289444;33;33946;-84
2023/01/05 05:08:52;;;;;;;15.82;9.30;;;;;;;6.64;100.00;100496.44;5289957;33;34762;-83
2023/01/05 05:11:55;;;;;;;16.35;10.25;;;;;;;6.65;100.00;100502.63;5290050;33;34314;-84
2023/01/05 05:14:58;;;;;;;16.12;10.73;;;;;;;6.65;100.00;100508.81;5289227;33;35116;-84
2023/01/05 05:18:02;;;;;;;16.02;9.88;;;;;;;6.74;100.00;100517.75;5289367;33;33935;-84
2023/01/05 05:21:11;;;;;;;15.77;10.03;;;;;;;6.65;100.00;100521.34;5289305;33;35507;-84
2023/01/05 05:24:14;;;;;;;16.70;10.73;;;;;;;6.68;100.00;100516.53;5289656;33;33795;-84
2023/01/05 05:27:18;;;;;;;15.55;9.90;;;;;;;6.75;100.00;100520.28;5289042;33;35113;-84
2023/01/05 05:30:20;;;;;;;14.52;9.45;;;;;;;6.68;100.00;100521.03;5289281;33;33718;-84
2023/01/05 05:33:24;;;;;;;16.35;10.27;;;;;;;6.59;100.00;100510.25;5292123;33;33836;-84
2023/01/05 05:36:27;;;;;;;16.35;9.98;;;;;;;6.62;100.00;100510.94;5295672;33;33889;-83
2023/01/05 05:39:30;;;;;;;14.27;9.57;;;;;;;6.49;100.00;100513.94;5295698;33;34581;-83
2023/01/05 05:42:33;;;;;;;15.07;9.88;;;;;;;6.46;100.00;100492.84;5295149;33;33825;-84
2023/01/05 05:45:35;;;;;;;14.80;8.88;;;;;;;6.52;100.00;100471.72;5292845;33;33897;-82
2023/01/05 05:48:38;;;;;;;14.73;9.88;;;;;;;6.46;100.00;100490.16;5293308;33;34143;-83
2023/01/05 05:51:41;;;;;;;14.00;8.90;;;;;;;6.42;100.00;100488.78;5303455;33;34440;-83
2023/01/05 05:54:44;;;;;;;14.87;10.23;;;;;;;6.39;100.00;100505.13;5307382;33;34731;-82
2023/01/05 05:57:47;;;;;;;15.02;9.35;;;;;;;6.37;100.00;100515.97;5307304;33;34280;-82
2023/01/05 06:00:50;;;;;;;15.50;9.43;;;;;;;6.21;100.00;100519.28;5303586;33;32673;-82
2023/01/05 06:03:53;;;;;;;19.00;9.93;;;;;;;6.09;100.00;100499.06;5304236;33;33653;-81
2023/01/05 06:06:55;;;;;;;17.27;10.68;;;;;;;6.02;100.00;100500.63;5306253;33;34894;-82
2023/01/05 06:09:58;;;;;;;16.65;10.75;;;;;;;6.03;100.00;100510.34;5308540;33;34400;-82
2023/01/05 06:13:02;;;;;;;14.57;9.45;;;;;;;6.08;100.00;100492.00;5308030;33;34514;-82
2023/01/05 06:16:05;;;;;;;17.67;10.02;;;;;;;6.08;100.00;100481.31;5308290;33;33721;-82
2023/01/05 06:19:08;;;;;;;14.38;9.45;;;;;;;6.06;100.00;100470.78;5295044;33;34121;-82
2023/01/05 06:22:11;;;;;;;15.15;9.30;;;;;;;6.08;100.00;100474.16;5307996;33;34765;-83
2023/01/05 06:25:19;;;;;;;17.27;9.73;;;;;;;6.06;100.00;100468.13;5308397;33;33836;-83
2023/01/05 06:28:21;;;;;;;15.55;9.40;;;;;;;6.12;100.00;100472.03;5306786;33;35033;-82
2023/01/05 06:31:25;;;;;;;16.83;9.75;;;;;;;6.11;100.00;100478.34;5307125;33;34054;-84
2023/01/05 06:34:28;;;;;;;16.77;9.93;;;;;;;6.06;100.00;100484.16;5308190;33;35122;-88
2023/01/05 06:37:31;;;;;;;14.93;9.65;;;;;;;5.99;100.00;100476.84;5307332;33;34806;-86
2023/01/05 06:40:34;;;;;;;17.85;10.25;;;;;;;6.06;100.00;100457.44;5307805;33;32799;-86
2023/01/05 06:43:36;;;;;;;17.80;9.65;;;;;;;6.06;100.00;100449.41;5307877;33;34935;-83
2023/01/05 06:46:39;;;;;;;18.20;10.07;;;;;;;6.08;100.00;100442.09;5307215;33;34135;-83
2023/01/05 06:49:42;;;;;;;14.18;9.38;;;;;;;6.06;100.00;100436.06;5307985;33;34802;-82
2023/01/05 06:52:45;;;;;;;15.20;9.65;;;;;;;5.94;100.00;100434.56;5312188;33;34191;-82
2023/01/05 06:55:48;;;;;;;16.98;10.40;;;;;;;5.89;100.00;100431.44;5311560;33;33641;-82
2023/01/05 06:58:51;;;;;;;16.00;10.40;;;;;;;5.80;100.00;100432.31;5302243;33;258644;-82
2023/01/05 07:01:54;;;;;;;18.52;10.32;;;;;;;5.77;100.00;100420.09;5312612;33;33846;-82
2023/01/05 07:04:57;;;;;;;18.23;10.32;;;;;;;5.76;100.00;100426.44;5307256;33;34029;-82
2023/01/05 07:08:00;;;;;;;18.37;10.32;;;;;;;5.77;100.00;100440.63;5306944;33;33642;-83
2023/01/05 07:11:03;;;;;;;18.83;11.02;;;;;;;5.82;100.00;100420.50;5311354;33;34625;-82
2023/01/05 07:14:05;;;;;;;17.40;10.30;;;;;;;5.81;100.00;100432.16;5306902;33;33699;-83
2023/01/05 07:17:08;;;;;;;19.75;11.82;;;;;;;5.87;100.00;100425.41;5306660;33;34157;-83
2023/01/05 07:20:11;;;;;;;17.73;10.70;;;;;;;5.89;100.00;100428.78;5305592;33;32321;-83
2023/01/05 07:23:14;;;;;;;19.58;10.20;;;;;;;6.04;100.00;100410.47;5291528;33;33627;-82
2023/01/05 07:26:17;;;;;;;19.73;10.23;;;;;;;6.13;100.00;100418.41;5305335;33;34067;-82
2023/01/05 07:29:20;;;;;;;19.23;11.07;;;;;;;6.13;100.00;100409.56;5310079;33;33867;-82
2023/01/05 07:32:23;;;;;;;18.27;11.27;;;;;;;6.13;100.00;100404.22;5312473;33;34259;-83
2023/01/05 07:35:27;;;;;;;14.95;10.05;;;;;;;6.17;100.00;100380.69;5310977;33;34424;-82
2023/01/05 07:38:33;;;;;;;15.63;8.90;;;;;;;6.22;100.00;100387.28;5310986;33;34165;-83
2023/01/05 07:41:36;;;;;;;16.05;10.20;;;;;;;6.20;100.00;100367.03;5302371;33;34875;-83
2023/01/05 07:44:39;;;;;;;17.35;10.55;;;;;;;6.25;100.00;100376.28;5311416;33;34137;-83
2023/01/05 07:47:42;;;;;;;16.75;10.02;;;;;;;6.25;100.00;100397.69;5308234;33;34020;-84
2023/01/05 07:50:44;;;;;;;17.65;10.35;;;;;;;6.26;100.00;100394.03;5308829;33;34874;-82
2023/01/05 07:53:47;;;;;;;18.83;10.88;;;;;;;6.30;100.00;100406.09;5306844;33;34553;-83
2023/01/05 07:56:50;;;;;;;19.75;11.93;;;;;;;6.22;100.00;100392.63;5306632;33;34386;-82
2023/01/05 07:59:53;;;;;;;20.20;12.15;;;;;;;6.24;100.00;100384.47;5304565;33;33751;-82
2023/01/05 08:02:56;;;;;;;20.02;11.32;;;;;;;6.20;100.00;100381.25;5308846;33;34484;-83
2023/01/05 08:06:11;;;;;;;17.60;10.55;;;;;;;6.11;100.00;100388.34;5307548;33;33685;-82
2023/01/05 08:13:58;;;;;;;20.77;11.05;;;;;;;6.06;100.00;100382.59;5308909;33;33925;-82
2023/01/05 08:15:59;;;;;;;19.35;10.32;;;;;;;6.02;100.00;100381.19;5295420;33;32344;-82
2023/01/05 08:19:02;;;;;;;19.52;11.15;;;;;;;5.97;100.00;100377.28;5307939;33;34828;-86
2023/01/05 08:22:12;;;;;;;19.45;10.48;;;;;;;6.01;100.00;100387.53;5313063;33;33524;-87
2023/01/05 08:25:15;;;;;;;17.83;11.20;;;;;;;6.10;100.00;100383.13;5310778;33;34668;-83
2023/01/05 08:28:18;;;;;;;19.67;10.93;;;;;;;6.15;100.00;100369.34;5306221;33;34457;-84
2023/01/05 08:31:27;;;;;;;16.40;11.02;;;;;;;6.12;100.00;100390.03;5307072;33;34819;-82
2023/01/05 08:34:30;;;;;;;18.93;11.37;;;;;;;6.20;100.00;100389.28;5307183;33;34034;-82
2023/01/05 08:37:36;;;;;;;20.12;12.02;;;;;;;6.25;100.00;100380.81;5306542;33;34018;-83
2023/01/05 08:40:39;;;;;;;19.20;12.80;;;;;;;6.23;100.00;100369.41;5306691;33;34783;-82
2023/01/05 08:43:42;;;;;;;18.50;11.48;;;;;;;6.25;100.00;100376.28;5293332;33;33648;-82
2023/01/05 08:46:45;;;;;;;23.42;12.95;;;;;;;6.21;100.00;100374.91;5306210;33;34742;-82
2023/01/05 08:49:48;;;;;;;25.12;12.93;;;;;;;6.32;100.00;100381.91;5306341;33;34942;-81
2023/01/05 08:52:51;;;;;;;21.45;11.77;;;;;;;6.38;100.00;100378.63;5306530;33;34852;-82
2023/01/05 08:55:54;;;;;;;21.62;12.43;;;;;;;6.38;100.00;100389.31;5305187;33;35353;-82
2023/01/05 08:59:00;;;;;;;19.37;11.25;;;;;;;6.35;100.00;100390.44;5306058;33;34123;-82
2023/01/05 09:02:05;;;;;;;20.00;11.50;;;;;;;6.31;100.00;100394.41;5305627;33;34062;-82
2023/01/05 09:05:08;;;;;;;20.70;12.13;;;;;;;6.24;100.00;100387.97;5293022;33;33759;-83
2023/01/05 09:08:11;;;;;;;20.92;12.32;;;;;;;6.45;100.00;100394.91;5306661;33;33961;-82
2023/01/05 09:11:19;;;;;;;20.45;11.65;;;;;;;6.48;100.00;100398.09;5306919;33;34312;-82
2023/01/05 09:14:22;;;;;;;19.87;10.93;;;;;;;6.50;100.00;100401.47;5304146;33;33119;-82
2023/01/05 09:17:25;;;;;;;22.02;12.05;;;;;;;6.52;100.00;100399.50;5291820;33;33877;-82
2023/01/05 09:20:28;;;;;;;21.62;12.75;;;;;;;6.50;100.00;100396.13;5306348;33;33590;-82
2023/01/05 09:23:39;;;;;;;22.67;12.80;;;;;;;6.38;100.00;100400.00;5306801;33;34604;-82
2023/01/05 09:26:43;;;;;;;23.38;12.00;;;;;;;6.44;100.00;100390.56;5293387;33;33344;-81
2023/01/05 09:29:46;;;;;;;20.60;13.10;;;;;;;6.48;100.00;100392.75;5308816;33;35123;-82
2023/01/05 09:32:48;;;;;;;23.83;12.80;;;;;;;6.47;100.00;100385.72;5297147;33;34445;-82
2023/01/05 09:35:55;;;;;;;21.45;11.80;;;;;;;6.53;100.00;100374.44;5296630;33;34930;-82
2023/01/05 09:38:58;;;;;;;21.27;11.80;;;;;;;6.69;100.00;100341.63;5306281;33;33961;-82
2023/01/05 09:42:04;;;;;;;21.12;12.57;;;;;;;6.87;100.00;100338.94;5305615;33;33387;-83
2023/01/05 09:45:11;;;;;;;21.20;12.40;;;;;;;6.97;100.00;100329.00;5292500;33;33261;-82
2023/01/05 09:48:14;;;;;;;20.33;11.65;;;;;;;7.32;100.00;100326.41;5306204;33;34735;-82
2023/01/05 09:51:17;;;;;;;16.90;12.05;;;;;;;7.46;100.00;100329.31;5288603;33;34885;-82
2023/01/05 09:54:25;;;;;;;18.48;11.85;;;;;;;7.60;100.00;100333.22;5299900;33;34658;-82
2023/01/05 09:57:28;;;;;;;18.40;12.05;;;;;;;7.59;100.00;100325.37;5316492;33;34214;-82
2023/01/05 10:00:32;;;;;;;21.30;11.80;;;;;;;7.70;100.00;100315.22;5316888;33;35112;-82
2023/01/05 10:03:39;;;;;;;17.60;11.70;;;;;;;7.89;100.00;100313.25;5306415;33;32846;-82
2023/01/05 10:07:05;;;;;;;18.90;10.75;;;;;;;8.02;100.00;100321.69;5305762;33;34011;-83
2023/01/05 10:10:36;;;;;;;17.23;12.30;;;;;;;8.17;100.00;100314.69;5305919;33;33562;-82
2023/01/05 10:13:47;;;;;;;19.85;11.77;;;;;;;8.12;100.00;100297.41;5305940;33;34384;-82
2023/01/05 10:16:50;;;;;;;20.10;11.88;;;;;;;8.21;100.00;100304.47;5305866;33;34247;-82
2023/01/05 10:20:16;;;;;;;23.23;11.80;;;;;;;8.35;100.00;100287.75;5302269;33;34793;-82
2023/01/05 10:23:31;;;;;;;18.48;11.45;;;;;;;8.46;100.00;100283.94;5291626;33;32602;-82
2023/01/05 10:26:54;;;;;;;19.67;11.93;;;;;;;8.39;100.00;100283.78;5305565;33;35068;-82
2023/01/05 10:30:17;;;;;;;16.87;10.80;;;;;;;8.29;100.00;100291.09;5289288;33;34547;-82
2023/01/05 10:33:40;;;;;;;17.02;11.02;;;;;;;8.55;100.00;100290.16;5305567;33;34323;-82
2023/01/05 10:37:26;;;;;;;21.08;11.07;;;;;;;8.50;100.00;100359.56;5298999;33;34783;-83
2023/01/05 10:40:43;;;;;;;19.58;11.07;;;;;;;8.23;100.00;100374.06;5305913;33;34835;-82
2023/01/05 10:44:06;;;;;;;18.65;11.55;;;;;;;7.86;100.00;100370.72;5305159;33;34607;-82
2023/01/05 10:47:10;;;;;;;18.02;11.10;;;;;;;7.62;100.00;100371.44;5305805;33;35461;-83
2023/01/05 10:50:38;;;;;;;21.65;12.23;;;;;;;7.55;100.00;100367.72;5305249;33;34830;-82
2023/01/05 10:53:43;;;;;;;22.65;12.43;;;;;;;7.49;100.00;100369.19;5307991;33;34343;-82
2023/01/05 10:56:46;;;;;;;21.90;12.20;;;;;;;7.47;100.00;100373.03;5307460;33;34737;-82
2023/01/05 10:59:54;;;;;;;19.37;11.82;;;;;;;7.55;100.00;100369.56;5307724;33;34145;-82
2023/01/05 11:02:57;;;;;;;19.90;10.75;;;;;;;7.56;100.00;100371.22;5294111;33;32363;-82
2023/01/05 11:06:00;;;;;;;22.48;11.27;;;;;;;7.50;100.00;100370.84;5307372;33;33976;-82
2023/01/05 11:09:21;;;;;;;19.50;11.63;;;;;;;7.47;100.00;100370.34;5304265;33;33987;-83
2023/01/05 11:12:25;;;;;;;19.48;10.73;;;;;;;7.51;100.00;100374.38;5292389;33;33706;-86
2023/01/05 11:15:30;;;;;;;19.58;11.00;;;;;;;7.57;100.00;100383.63;5307111;33;33842;-83
2023/01/05 11:18:46;;;;;;;17.75;11.73;;;;;;;7.52;100.00;100378.75;5306931;33;33284;-82
2023/01/05 11:21:49;;;;;;;16.92;10.07;;;;;;;7.49;100.00;100374.53;5306892;33;34540;-82
2023/01/05 11:25:22;;;;;;;11.65;6.60;;;;;;;7.54;100.00;100378.56;5294773;33;34026;-82
2023/01/05 11:28:25;;;;;;;6.87;3.90;;;;;;;7.65;100.00;100379.16;5297190;33;34016;-82
2023/01/05 11:31:46;;;;;;;3.95;3.35;;;;;;;7.94;100.00;100386.00;5306311;33;33614;-81
2023/01/05 11:34:50;;;;;;;3.17;2.72;;;;;;;8.14;100.00;100386.59;5306765;33;34234;-82
2023/01/05 11:41:42;;;;;;;4.83;2.40;;;;;;;8.27;100.00;100370.88;5315371;28;35509;-82
2023/01/05 11:45:01;;;;;;;2.50;2.30;;;;;;;8.38;100.00;100370.59;5290778;33;33542;-80
2023/01/05 11:48:07;;;;;;;2.95;2.25;;;;;;;8.40;100.00;100373.97;5309726;33;32453;-81
2023/01/05 11:51:37;;;;;;;4.43;2.30;;;;;;;8.52;100.00;100368.28;5291202;33;34787;-81
2023/01/05 11:54:41;;;;;;;3.95;2.22;;;;;;;8.62;100.00;100345.66;5291083;33;34879;-81
2023/01/05 11:57:44;;;;;;;4.65;2.53;;;;;;;8.74;100.00;100335.44;5290216;33;34611;-81
2023/01/05 12:01:02;;;;;;;3.40;1.98;;;;;;;8.71;100.00;100330.41;5294693;33;34798;-84
2023/01/05 12:04:23;;;;;;;2.25;2.05;;;;;;;8.80;100.00;100325.88;5289183;33;34013;-81
2023/01/05 12:07:33;;;;;;;4.57;2.00;;;;;;;8.76;100.00;100335.28;5293575;33;33524;-81
2023/01/05 12:10:36;;;;;;;3.70;2.00;;;;;;;8.82;100.00;100345.34;5305506;33;34290;-81
2023/01/05 12:14:09;;;;;;;2.67;2.25;;;;;;;8.81;100.00;100343.66;5298404;33;32329;-81
2023/01/05 12:17:14;;;;;;;3.55;2.35;;;;;;;8.78;100.00;100344.00;5299395;33;34513;-81
2023/01/05 12:20:26;;;;;;;3.00;2.30;;;;;;;8.73;100.00;100363.28;5296090;33;34924;-81
2023/01/05 12:23:49;;;;;;;2.75;2.42;;;;;;;8.81;100.00;100370.53;5276759;33;34275;-81
2023/01/05 12:27:06;;;;;;;2.05;1.87;;;;;;;8.87;100.00;100393.19;5305357;33;34144;-81
2023/01/05 12:30:17;;;;;;;1.55;1.45;;;;;;;8.90;100.00;100385.63;5296589;33;32752;-81
2023/01/05 12:34:11;;;;;;;2.05;1.73;;;;;;;8.95;100.00;100393.16;5307631;33;34915;-85
2023/01/05 12:37:52;;;;;;;2.97;1.62;;;;;;;8.93;100.00;100403.25;5302011;33;34923;-81
2023/01/05 12:41:14;;;;;;;;;;;;;;;8.81;100.00;100392.00;5302592;33;33610;-80
2023/01/05 12:44:22;;;;;;;3.17;1.40;;;;;;;8.69;100.00;100412.94;5288649;33;34351;-81
2023/01/05 12:47:54;;;;;;;2.22;1.45;;;;;;;8.74;100.00;100393.66;5275382;33;34159;-80
2023/01/05 12:51:01;;;;;;;4.00;2.03;;;;;;;8.60;100.00;100357.59;5288004;33;33835;-80
2023/01/05 12:54:16;;;;;;;2.30;1.50;;;;;;;8.64;100.00;100358.91;5290978;33;34035;-81
2023/01/05 12:57:35;;;;;;;2.45;1.60;;;;;;;8.71;100.00;100340.28;5281710;33;33530;-81
2023/01/05 13:00:44;;;;;;;3.27;1.50;;;;;;;8.77;100.00;100331.56;5266175;33;34094;-86
2023/01/05 13:03:56;;;;;;;3.03;1.67;;;;;;;8.71;100.00;100318.81;5269239;33;32419;-82
2023/01/05 13:07:05;;;;;;;2.90;1.90;;;;;;;8.78;100.00;100304.56;5277849;33;34416;-82
2023/01/05 13:10:27;;;;;;;2.47;1.80;;;;;;;8.83;100.00;100301.37;5271503;33;35027;-82
2023/01/05 13:13:38;;;;;;;2.42;1.87;;;;;;;8.88;100.00;100290.12;5271253;33;34047;-82
2023/01/05 13:16:47;;;;;;;2.53;1.67;;;;;;;8.87;100.00;100285.78;5272618;33;34880;-82
2023/01/05 13:20:02;;;;;;;3.87;2.03;;;;;;;8.90;100.00;100299.72;5283470;33;33128;-82
2023/01/05 13:23:16;;;;;;;3.37;2.00;;;;;;;8.93;100.00;100290.47;5266282;33;32282;-82
2023/01/05 13:26:21;;;;;;;4.25;2.12;;;;;;;9.11;100.00;100304.53;5271321;33;33521;-82
2023/01/05 13:29:32;;;;;;;2.00;1.80;;;;;;;9.19;100.00;100325.19;5270801;33;34840;-83
2023/01/05 13:32:41;;;;;;;2.28;1.65;;;;;;;9.27;100.00;100330.53;5270734;33;34056;-82
2023/01/05 13:35:55;;;;;;;5.10;2.25;;;;;;;9.24;100.00;100342.47;5270929;33;34782;-83
2023/01/05 13:39:37;;;;;;;1.77;1.67;;;;;;;9.28;100.00;100343.81;5270744;33;34230;-83
